Time;durP1;ratioP1;P1;durP2;ratioP2;P2;SDS_P1;SDS_P2;PMS_P1;PMS_P2;Temp;Humidity;BMP_temperature;BMP_pressure;BME280_temperature;BME280_humidity;BME280_pressure;Samples;Min_cycle;Max_cycle;Signal;HPM_P1;HPM_P2
2021/10/28 00:14:34;;;;;;;328.23;157.65;;;180.10;1766.40;;;;;;5034935;28;20036;-63
2021/10/28 00:17:02;;;;;;;365.50;167.52;;;180.00;1715.20;;;;;;5034359;28;20504;-62
2021/10/28 00:19:28;;;;;;;409.52;180.13;;;179.80;1792.00;;;;;;5034300;28;20494;-63
2021/10/28 00:21:54;;;;;;;412.15;184.93;;;179.90;1766.40;;;;;;5034511;28;20026;-63
2021/10/28 00:24:20;;;;;;;384.30;174.27;;;179.80;1740.80;;;;;;5034158;28;20045;-63
2021/10/28 00:26:47;;;;;;;371.65;169.30;;;179.90;1792.00;;;;;;5034275;28;20044;-62
2021/10/28 00:29:17;;;;;;;350.73;154.75;;;180.00;1766.40;;;;;;5034601;28;20026;-62
2021/10/28 00:31:44;;;;;;;328.52;152.38;;;179.80;1740.80;;;;;;5034057;28;20046;-63
2021/10/28 00:34:12;;;;;;;322.13;147.65;;;179.70;1843.20;;;;;;5033552;28;20026;-63
2021/10/28 00:36:38;;;;;;;318.83;145.27;;;179.80;1766.40;;;;;;5049188;28;20043;-63
2021/10/28 00:39:08;;;;;;;314.98;146.00;;;179.70;1740.80;;;;;;5095964;28;20351;-62
2021/10/28 00:41:36;;;;;;;311.30;144.40;;;179.60;1817.60;;;;;;5078085;28;20049;-62
2021/10/28 00:44:03;;;;;;;307.88;144.90;;;179.60;1792.00;;;;;;5096290;28;20115;-62
2021/10/28 00:46:33;;;;;;;323.45;152.82;;;179.60;1740.80;;;;;;5076856;28;20036;-63
2021/10/28 00:49:02;;;;;;;308.58;144.13;;;179.50;1843.20;;;;;;5074438;28;20052;-62
2021/10/28 00:51:29;;;;;;;313.55;141.63;;;179.50;1792.00;;;;;;5076021;28;20032;-63
2021/10/28 00:53:57;;;;;;;326.48;147.60;;;179.60;1715.20;;;;;;5075692;28;20535;-63
2021/10/28 00:56:25;;;;;;;316.85;144.25;;;179.50;1792.00;;;;;;5074559;28;20031;-62
2021/10/28 00:58:51;;;;;;;323.10;146.02;;;179.50;1792.00;;;;;;5075926;28;20028;-62
2021/10/28 01:01:17;;;;;;;324.88;142.93;;;179.60;1740.80;;;;;;5075659;28;20485;-62
2021/10/28 01:03:44;;;;;;;302.75;138.07;;;179.30;1792.00;;;;;;5075683;28;20107;-62
2021/10/28 01:06:12;;;;;;;294.15;135.07;;;179.40;1817.60;;;;;;5075561;28;20044;-62
2021/10/28 01:08:43;;;;;;;302.48;138.65;;;179.50;1766.40;;;;;;5075689;28;20542;-62
2021/10/28 01:11:10;;;;;;;300.27;138.07;;;179.40;1715.20;;;;;;5075502;28;20378;-63
2021/10/28 01:13:37;;;;;;;301.40;136.55;;;179.20;1792.00;;;;;;5075277;28;20043;-62
2021/10/28 01:16:04;;;;;;;286.23;132.80;;;179.30;1766.40;;;;;;5075063;28;20024;-63
2021/10/28 01:18:32;;;;;;;275.65;129.10;;;179.40;1715.20;;;;;;5075051;28;20378;-63
2021/10/28 01:20:58;;;;;;;271.85;129.35;;;179.30;1792.00;;;;;;5075292;28;20112;-62
2021/10/28 01:23:25;;;;;;;250.77;123.50;;;179.30;1792.00;;;;;;5075273;28;20078;-62
2021/10/28 01:25:57;;;;;;;253.38;124.75;;;179.40;1715.20;;;;;;5073912;28;20051;-63
2021/10/28 01:28:25;;;;;;;249.32;123.85;;;179.20;1740.80;;;;;;5075298;28;20020;-63
2021/10/28 01:30:56;;;;;;;244.73;122.05;;;154.50;1792.00;;;;;;5075221;28;20024;-62
2021/10/28 01:33:23;;;;;;;237.32;122.00;;;179.30;1766.40;;;;;;5074915;28;20035;-62
2021/10/28 01:35:49;;;;;;;237.35;123.75;;;179.20;1766.40;;;;;;5074846;28;20074;-62
2021/10/28 01:38:17;;;;;;;234.60;118.78;;;179.30;1817.60;;;;;;5074850;28;20104;-62
2021/10/28 01:40:51;;;;;;;233.30;120.13;;;179.30;1792.00;;;;;;5074943;28;20104;-62
2021/10/28 01:43:18;;;;;;;234.05;121.47;;;179.30;1715.20;;;;;;5074921;28;20066;-62
2021/10/28 01:45:44;;;;;;;229.52;118.43;;;154.50;1766.40;;;;;;5074533;28;20083;-62
2021/10/28 01:48:10;;;;;;;237.18;119.78;;;154.50;1817.60;;;;;;5073195;28;20033;-62
2021/10/28 01:50:36;;;;;;;227.82;121.97;;;179.20;1740.80;;;;;;5073570;28;20135;-63
2021/10/28 01:53:02;;;;;;;233.60;123.63;;;154.50;1766.40;;;;;;5074914;28;20102;-63
2021/10/28 01:55:28;;;;;;;234.20;122.00;;;154.50;1817.60;;;;;;5073443;28;20107;-63
2021/10/28 01:57:54;;;;;;;226.50;115.45;;;179.20;1766.40;;;;;;5074641;28;20042;-63
2021/10/28 02:00:22;;;;;;;234.15;125.03;;;154.40;1766.40;;;;;;5074624;28;20060;-62
2021/10/28 02:02:50;;;;;;;234.27;124.07;;;154.30;1817.60;;;;;;5074514;28;20041;-62
2021/10/28 02:05:18;;;;;;;230.05;122.05;;;154.40;1843.20;;;;;;5074222;28;20478;-62
2021/10/28 02:07:44;;;;;;;238.88;125.93;;;154.50;1766.40;;;;;;5074264;28;20095;-63
2021/10/28 02:10:11;;;;;;;237.88;127.90;;;154.40;1766.40;;;;;;5074338;28;20052;-62
2021/10/28 02:12:38;;;;;;;231.75;124.50;;;154.40;1843.20;;;;;;5074491;28;20111;-63
2021/10/28 02:15:06;;;;;;;235.82;125.43;;;154.50;1766.40;;;;;;5074215;28;20489;-62
2021/10/28 02:17:33;;;;;;;236.27;126.07;;;154.50;1766.40;;;;;;5074141;28;20021;-62
2021/10/28 02:19:59;;;;;;;240.75;124.70;;;154.30;1817.60;;;;;;5074154;28;20028;-62
2021/10/28 02:22:25;;;;;;;243.45;123.55;;;154.40;1792.00;;;;;;5074004;28;20048;-62
2021/10/28 02:24:51;;;;;;;233.18;125.72;;;154.40;1766.40;;;;;;5073603;28;20037;-63
2021/10/28 02:27:17;;;;;;;244.57;127.82;;;154.20;1766.40;;;;;;5074139;28;20028;-62
2021/10/28 02:29:43;;;;;;;250.85;129.35;;;154.30;1843.20;;;;;;5073277;28;20029;-62
2021/10/28 02:32:09;;;;;;;243.23;132.40;;;154.30;1792.00;;;;;;5073968;28;20054;-63
2021/10/28 02:34:36;;;;;;;267.88;135.88;;;154.20;1792.00;;;;;;5074050;28;20025;-62
2021/10/28 02:37:03;;;;;;;255.50;132.73;;;154.10;1792.00;;;;;;5074006;28;20036;-63
2021/10/28 02:39:29;;;;;;;253.60;131.35;;;154.10;1843.20;;;;;;5073844;28;20102;-62
2021/10/28 02:41:55;;;;;;;241.93;129.40;;;154.20;1792.00;;;;;;5073394;28;20025;-63
2021/10/28 02:44:21;;;;;;;251.00;127.20;;;154.10;1766.40;;;;;;5074111;28;20036;-62
2021/10/28 02:46:47;;;;;;;235.02;122.47;;;153.90;1766.40;;;;;;5072215;28;20044;-62
2021/10/28 02:49:14;;;;;;;243.68;130.23;;;153.90;1740.80;;;;;;5078973;28;20494;-62
2021/10/28 02:51:46;;;;;;;234.90;129.43;;;153.80;1792.00;;;;;;5094010;28;20035;-62
2021/10/28 02:54:13;;;;;;;248.60;126.47;;;153.90;1843.20;;;;;;5093913;28;20415;-62
2021/10/28 02:56:39;;;;;;;246.00;124.72;;;154.00;1894.40;;;;;;5093855;28;20066;-62
2021/10/28 02:59:04;;;;;;;235.90;124.53;;;154.10;1868.80;;;;;;5093810;28;20044;-62
2021/10/28 03:01:30;;;;;;;235.50;125.13;;;154.20;1792.00;;;;;;5093708;28;20478;-62
2021/10/28 03:03:56;;;;;;;232.23;125.47;;;154.30;1715.20;;;;;;5093560;28;20032;-62
2021/10/28 03:06:21;;;;;;;226.38;120.97;;;154.20;1817.60;;;;;;5075512;28;20044;-62
2021/10/28 03:08:49;;;;;;;225.30;121.03;;;154.20;1817.60;;;;;;5093843;28;20039;-62
2021/10/28 03:11:15;;;;;;;233.27;121.15;;;154.30;1766.40;;;;;;5074771;28;20501;-63
2021/10/28 03:13:41;;;;;;;238.93;120.22;;;154.10;1843.20;;;;;;5093913;28;20059;-62
2021/10/28 03:27:15;;;;;;;207.93;115.35;;;154.30;1843.20;;;;;;4992404;28;20363;-61
2021/10/28 03:29:41;;;;;;;214.05;113.10;;;154.40;1843.20;;;;;;4992075;28;20388;-62
2021/10/28 03:32:07;;;;;;;212.50;112.82;;;154.40;1843.20;;;;;;4991999;28;20113;-62
2021/10/28 03:34:33;;;;;;;199.70;109.22;;;154.50;1843.20;;;;;;4992197;28;20067;-61
2021/10/28 03:37:07;;;;;;;196.02;108.30;;;154.40;1843.20;;;;;;4975706;28;20536;-61
2021/10/28 04:07:01;;;;;;;186.63;97.55;;;154.30;1843.20;;;;;;5096994;28;20043;-62
2021/10/28 04:30:04;;;;;;;164.25;89.10;;;154.10;1920.00;;;;;;5096471;28;20088;-61
2021/10/28 04:32:30;;;;;;;167.70;90.85;;;154.10;1920.00;;;;;;5096143;28;20535;-61
2021/10/28 04:34:56;;;;;;;158.80;90.57;;;154.00;1894.40;;;;;;5096772;28;20107;-62
2021/10/28 04:37:21;;;;;;;163.68;89.30;;;154.10;1894.40;;;;;;5096451;28;20039;-61
2021/10/28 04:39:47;;;;;;;162.60;87.10;;;154.10;1894.40;;;;;;5096432;28;20111;-61
2021/10/28 04:42:14;;;;;;;171.00;88.30;;;154.10;1894.40;;;;;;5096272;28;20035;-61
2021/10/28 04:44:41;;;;;;;171.00;88.55;;;154.10;1894.40;;;;;;5096380;28;20039;-61
2021/10/28 04:47:08;;;;;;;160.38;86.80;;;154.00;1894.40;;;;;;5096296;28;20028;-61
2021/10/28 04:49:33;;;;;;;147.73;80.47;;;154.00;1894.40;;;;;;5096046;28;20050;-61
2021/10/28 04:51:59;;;;;;;158.32;82.13;;;154.00;1894.40;;;;;;5095064;28;20111;-61
2021/10/28 04:54:25;;;;;;;156.85;81.93;;;154.00;1920.00;;;;;;5096221;28;20059;-61
2021/10/28 04:56:51;;;;;;;151.40;78.93;;;154.00;1920.00;;;;;;5096025;28;20478;-61
2021/10/28 04:59:17;;;;;;;139.63;75.35;;;154.00;1920.00;;;;;;5095349;28;20024;-61
2021/10/28 05:01:44;;;;;;;151.48;76.72;;;154.00;1920.00;;;;;;5095461;28;20052;-62
2021/10/28 05:04:09;;;;;;;137.52;74.32;;;153.90;1920.00;;;;;;5095742;28;20458;-61
2021/10/28 05:06:35;;;;;;;131.15;71.75;;;153.90;1920.00;;;;;;5096008;28;20076;-61
2021/10/28 05:09:01;;;;;;;120.45;68.18;;;153.90;1894.40;;;;;;5095725;28;20390;-61
2021/10/28 05:11:28;;;;;;;148.77;68.53;;;153.90;1894.40;;;;;;5095714;28;20063;-63
2021/10/28 05:13:54;;;;;;;128.20;71.43;;;153.90;1920.00;;;;;;5076717;28;20043;-61
2021/10/28 05:16:20;;;;;;;132.90;68.72;;;153.90;1894.40;;;;;;5095418;28;20040;-61
2021/10/28 05:18:46;;;;;;;127.68;67.65;;;153.90;1920.00;;;;;;5095263;28;20031;-61
2021/10/28 05:21:13;;;;;;;121.53;68.38;;;154.00;1945.60;;;;;;5095554;28;20028;-61
2021/10/28 05:23:39;;;;;;;111.70;63.53;;;153.90;1945.60;;;;;;5095589;28;20026;-64
2021/10/28 05:26:07;;;;;;;107.55;59.22;;;154.00;1945.60;;;;;;5095402;28;20461;-61
2021/10/28 05:28:34;;;;;;;106.47;59.45;;;153.90;1945.60;;;;;;5095467;28;20024;-61
2021/10/28 05:31:00;;;;;;;99.68;56.38;;;153.90;1945.60;;;;;;5095340;28;20035;-61
2021/10/28 05:33:27;;;;;;;104.15;56.10;;;153.90;1945.60;;;;;;5095242;28;20024;-61
2021/10/28 05:35:53;;;;;;;96.68;54.55;;;153.90;1945.60;;;;;;5094833;28;20035;-61
2021/10/28 05:38:18;;;;;;;96.50;54.00;;;154.00;1945.60;;;;;;5095349;28;20032;-62
2021/10/28 05:40:44;;;;;;;101.78;54.83;;;154.00;1945.60;;;;;;5095162;28;20024;-61
2021/10/28 05:43:11;;;;;;;103.95;57.13;;;154.00;1920.00;;;;;;5095142;28;20031;-62
2021/10/28 05:45:37;;;;;;;108.30;60.75;;;154.00;1920.00;;;;;;5094878;28;20040;-61
2021/10/28 05:48:04;;;;;;;120.22;63.13;;;154.10;1945.60;;;;;;5094683;28;20462;-62
2021/10/28 05:50:30;;;;;;;123.65;67.13;;;154.10;1920.00;;;;;;5094679;28;20475;-62
2021/10/28 05:52:58;;;;;;;131.13;67.00;;;154.10;1894.40;;;;;;5094213;28;20022;-61
2021/10/28 05:55:24;;;;;;;130.15;70.55;;;154.10;1894.40;;;;;;5094404;28;20496;-61
2021/10/28 05:57:52;;;;;;;158.95;80.50;;;154.10;1894.40;;;;;;5094542;28;20024;-62
2021/10/28 06:00:19;;;;;;;155.38;86.20;;;154.20;1894.40;;;;;;5094727;28;20032;-61
2021/10/28 06:02:45;;;;;;;134.07;74.30;;;154.20;1920.00;;;;;;5094521;28;20153;-61
2021/10/28 06:05:11;;;;;;;102.70;60.03;;;154.20;1920.00;;;;;;5094958;28;20032;-61
2021/10/28 06:07:38;;;;;;;85.43;45.03;;;154.30;1920.00;;;;;;5094428;28;20020;-62
2021/10/28 06:10:05;;;;;;;76.45;43.85;;;154.30;1945.60;;;;;;5093962;28;20034;-63
2021/10/28 06:12:39;;;;;;;76.50;44.13;;;154.40;1945.60;;;;;;5094095;28;20024;-61
2021/10/28 06:15:07;;;;;;;74.30;43.88;;;154.40;1945.60;;;;;;5094674;28;20028;-61
2021/10/28 06:17:36;;;;;;;63.85;40.15;;;154.50;1945.60;;;;;;5094586;28;20526;-61
2021/10/28 06:20:03;;;;;;;65.53;40.38;;;154.50;1945.60;;;;;;5093698;28;20028;-61
2021/10/28 06:22:29;;;;;;;75.28;42.28;;;179.20;1920.00;;;;;;5075530;28;20052;-62
2021/10/28 06:24:57;;;;;;;65.72;39.53;;;179.20;1920.00;;;;;;5093488;28;20504;-61
2021/10/28 06:27:23;;;;;;;63.05;39.67;;;179.20;1894.40;;;;;;5093629;28;20055;-62
2021/10/28 06:29:49;;;;;;;74.00;42.35;;;179.20;1920.00;;;;;;5093747;28;20023;-62
2021/10/28 06:32:15;;;;;;;71.25;41.10;;;179.30;1894.40;;;;;;5094094;28;20024;-62
2021/10/28 06:34:43;;;;;;;80.75;40.90;;;179.30;1894.40;;;;;;5094249;28;20031;-63
2021/10/28 06:37:10;;;;;;;76.95;42.90;;;179.40;1894.40;;;;;;5094255;28;20419;-63
2021/10/28 06:39:37;;;;;;;76.82;43.67;;;179.40;1894.40;;;;;;5094135;28;20028;-63
2021/10/28 06:42:03;;;;;;;75.65;41.22;;;179.40;1920.00;;;;;;5094166;28;20124;-63
2021/10/28 06:44:32;;;;;;;78.22;44.00;;;179.40;1920.00;;;;;;5093829;28;20032;-63
2021/10/28 06:46:58;;;;;;;80.78;46.30;;;179.50;1920.00;;;;;;5094033;28;20028;-63
2021/10/28 06:49:24;;;;;;;74.82;45.67;;;179.50;1920.00;;;;;;5093878;28;20050;-63
2021/10/28 06:51:50;;;;;;;73.90;45.42;;;179.40;1945.60;;;;;;5093976;28;20035;-63
2021/10/28 06:54:25;;;;;;;81.57;47.97;;;179.50;1945.60;;;;;;5093601;28;20025;-63
2021/10/28 07:04:58;;;;;;;87.50;52.28;;;179.60;1945.60;;;;;;5011772;28;20034;-63
2021/10/28 07:07:30;;;;;;;89.57;51.30;;;179.60;1945.60;;;;;;5011890;28;20030;-63
2021/10/28 07:10:12;;;;;;;77.50;48.28;;;179.70;1945.60;;;;;;5011693;28;20419;-62
2021/10/28 07:15:36;;;;;;;82.85;51.35;;;179.80;1945.60;;;;;;4975205;28;20050;-63
2021/10/28 07:23:18;;;;;;;89.53;56.60;;;179.90;1945.60;;;;;;4976839;28;20038;-63
2021/10/28 07:28:40;;;;;;;82.82;49.72;;;179.90;1945.60;;;;;;4976679;28;20469;-63
2021/10/28 07:55:23;;;;;;;80.00;47.90;;;205.10;1945.60;;;;;;5097495;28;20035;-63
2021/10/28 08:19:30;;;;;;;56.90;36.92;;;230.70;1894.40;;;;;;5014752;28;20085;-63
2021/10/28 08:22:05;;;;;;;54.97;36.47;;;230.80;1868.80;;;;;;4997858;28;20037;-63
2021/10/28 08:28:39;;;;;;;51.30;35.00;;;230.80;1894.40;;;;;;5014613;28;20062;-63
2021/10/28 08:30:01;;;;;;;60.60;34.83;;;231.10;1868.80;;;;;;5015029;28;20041;-63
2021/10/28 08:32:27;;;;;;;50.72;33.70;;;231.20;1843.20;;;;;;5014275;28;20025;-63
2021/10/28 08:34:53;;;;;;;48.05;33.25;;;231.30;1868.80;;;;;;5014551;28;20041;-63
2021/10/28 08:37:21;;;;;;;54.00;34.45;;;256.00;1817.60;;;;;;5014468;28;20053;-63
2021/10/28 08:39:50;;;;;;;52.17;34.85;;;256.10;1817.60;;;;;;5014277;28;20029;-63
2021/10/28 08:42:18;;;;;;;52.50;34.75;;;256.20;1817.60;;;;;;5055664;28;20111;-63
2021/10/28 08:44:53;;;;;;;52.28;33.17;;;256.30;1817.60;;;;;;5096195;28;20119;-63
2021/10/28 08:47:21;;;;;;;61.00;34.03;;;256.40;1792.00;;;;;;5096347;28;20044;-63
2021/10/28 08:49:56;;;;;;;56.42;36.22;;;256.60;1792.00;;;;;;5095886;28;20147;-63
2021/10/28 09:24:08;;;;;;;57.47;38.45;;;282.40;1766.40;;;;;;4974788;28;20385;-64
2021/10/28 09:34:59;;;;;;;89.07;39.72;;;307.40;1766.40;;;;;;4992471;28;20045;-64
2021/10/28 09:51:48;;;;;;;58.75;35.13;;;308.00;1740.80;;;;;;5091651;28;20032;-64
2021/10/28 09:59:41;;;;;;;53.58;34.20;;;332.80;1740.80;;;;;;5093654;28;20039;-63
2021/10/28 10:02:49;;;;;;;59.70;32.45;;;332.80;1740.80;;;;;;5093291;28;20401;-63
2021/10/28 10:05:20;;;;;;;52.72;31.00;;;332.90;1715.20;;;;;;5091986;28;20172;-63
2021/10/28 10:07:47;;;;;;;53.03;29.40;;;333.00;1715.20;;;;;;5093294;28;20012;-63
2021/10/28 10:10:20;;;;;;;47.58;28.95;;;333.10;1715.20;;;;;;5090789;28;20020;-63
2021/10/28 10:12:47;;;;;;;44.15;28.80;;;333.20;1689.60;;;;;;5093675;28;20023;-64
2021/10/28 10:15:14;;;;;;;36.80;25.25;;;333.30;1689.60;;;;;;5094131;28;20107;-65
2021/10/28 10:17:42;;;;;;;32.20;23.13;;;333.40;1689.60;;;;;;5094181;28;20032;-64
2021/10/28 10:20:10;;;;;;;35.90;24.55;;;333.50;1638.40;;;;;;5094645;28;20043;-64
2021/10/28 10:29:16;;;;;;;41.33;25.30;;;358.40;1612.80;;;;;;5020257;28;20034;-63
2021/10/28 11:19:13;;;;;;;28.92;20.80;;;359.30;1536.00;;;;;;5072398;28;20036;-64
2021/10/28 13:06:37;;;;;;;31.30;18.58;;;410.20;1305.60;;;;;;5095817;28;19965;-64
2021/10/28 13:49:58;;;;;;;35.67;21.98;;;410.10;1305.60;;;;;;5091509;28;20105;-61
2021/10/28 14:29:54;;;;;;;45.75;27.23;;;384.80;1331.20;;;;;;5091093;28;20027;-64
2021/10/28 15:28:58;;;;;;;59.13;38.35;;;358.80;1536.00;;;;;;5091502;28;20035;-63
2021/10/28 16:22:24;;;;;;;218.75;112.32;;;332.80;1664.00;;;;;;5095959;28;20077;-63
2021/10/28 16:24:50;;;;;;;251.73;119.95;;;308.10;1664.00;;;;;;5096093;28;20028;-63
2021/10/28 16:27:16;;;;;;;319.15;138.90;;;308.00;1664.00;;;;;;5095150;28;20043;-63
2021/10/28 16:29:42;;;;;;;309.52;139.40;;;308.00;1664.00;;;;;;5095633;28;20024;-63
2021/10/28 16:32:08;;;;;;;277.95;130.23;;;307.90;1664.00;;;;;;5095620;28;20054;-64
2021/10/28 16:34:34;;;;;;;233.60;121.40;;;307.90;1664.00;;;;;;5095471;28;20107;-63
2021/10/28 16:37:00;;;;;;;222.45;114.18;;;307.90;1664.00;;;;;;5095899;28;20165;-63
2021/10/28 16:39:26;;;;;;;248.85;126.40;;;307.90;1689.60;;;;;;5095658;28;20513;-63
2021/10/28 16:41:54;;;;;;;341.80;170.80;;;307.80;1664.00;;;;;;5095815;28;20036;-63
2021/10/28 16:44:21;;;;;;;387.10;196.75;;;307.80;1664.00;;;;;;5096459;28;20020;-62
2021/10/28 16:46:48;;;;;;;397.42;202.70;;;307.70;1689.60;;;;;;5077483;28;20036;-62
2021/10/28 16:49:14;;;;;;;417.08;213.95;;;307.70;1664.00;;;;;;5095707;28;20028;-62
2021/10/28 16:51:41;;;;;;;398.98;208.40;;;307.70;1689.60;;;;;;5078005;28;20047;-63
2021/10/28 16:54:08;;;;;;;377.98;194.90;;;307.50;1689.60;;;;;;5078057;28;20020;-62
2021/10/28 16:56:33;;;;;;;340.80;179.50;;;307.50;1689.60;;;;;;5077258;28;20067;-62
2021/10/28 16:59:00;;;;;;;315.00;169.05;;;307.50;1715.20;;;;;;5095791;28;20047;-63
2021/10/28 17:01:26;;;;;;;288.88;158.90;;;307.40;1689.60;;;;;;5094178;28;20039;-62
2021/10/28 17:03:53;;;;;;;278.48;148.65;;;307.40;1689.60;;;;;;5094272;28;20012;-64
2021/10/28 17:06:21;;;;;;;271.67;146.52;;;307.40;1715.20;;;;;;5094297;28;20390;-64
2021/10/28 17:08:47;;;;;;;274.15;148.00;;;307.30;1689.60;;;;;;5077581;28;20077;-63
2021/10/28 17:11:13;;;;;;;274.58;151.80;;;307.30;1715.20;;;;;;5095940;28;20389;-63
2021/10/28 17:13:42;;;;;;;313.17;171.20;;;307.20;1715.20;;;;;;5095925;28;20020;-63
2021/10/28 17:16:08;;;;;;;338.45;187.10;;;307.20;1715.20;;;;;;5095738;28;20098;-62
2021/10/28 17:18:34;;;;;;;325.90;183.85;;;307.20;1715.20;;;;;;5095338;28;20020;-63
2021/10/28 17:21:04;;;;;;;324.00;179.10;;;282.50;1664.00;;;;;;5095477;28;20059;-63
2021/10/28 17:23:33;;;;;;;308.67;169.80;;;282.50;1689.60;;;;;;5096155;28;20031;-63
2021/10/28 17:26:03;;;;;;;296.17;158.02;;;282.40;1689.60;;;;;;5095392;28;20554;-63
2021/10/28 17:28:29;;;;;;;295.85;155.70;;;282.40;1689.60;;;;;;5076638;28;20067;-63
2021/10/28 17:30:55;;;;;;;293.13;151.27;;;282.40;1689.60;;;;;;5095352;28;20024;-65
2021/10/28 17:33:20;;;;;;;277.77;144.02;;;282.30;1689.60;;;;;;5094637;28;20386;-63
2021/10/28 17:35:46;;;;;;;280.10;142.65;;;282.30;1715.20;;;;;;5095437;28;20036;-63
2021/10/28 17:38:12;;;;;;;251.20;133.32;;;282.20;1689.60;;;;;;5076783;28;20035;-63
2021/10/28 17:40:37;;;;;;;271.27;135.82;;;282.20;1715.20;;;;;;5095611;28;20032;-62
2021/10/28 17:43:09;;;;;;;278.13;136.52;;;282.10;1740.80;;;;;;5076774;28;20462;-66
2021/10/28 17:45:36;;;;;;;276.73;141.52;;;282.00;1715.20;;;;;;5095096;28;20059;-63
2021/10/28 17:48:02;;;;;;;274.88;134.02;;;282.10;1715.20;;;;;;5076511;28;20109;-62
2021/10/28 17:50:28;;;;;;;260.95;131.68;;;282.10;1689.60;;;;;;5094421;28;20486;-65
2021/10/28 17:52:54;;;;;;;270.52;133.65;;;282.00;1689.60;;;;;;5095072;28;20373;-63
2021/10/28 17:55:21;;;;;;;260.65;130.82;;;282.00;1715.20;;;;;;5094164;28;20078;-63
2021/10/28 17:57:49;;;;;;;258.92;129.13;;;282.00;1689.60;;;;;;5094455;28;20425;-64
2021/10/28 18:00:17;;;;;;;251.38;127.80;;;281.90;1715.20;;;;;;5094659;28;20027;-66
2021/10/28 18:02:43;;;;;;;238.95;127.88;;;281.90;1689.60;;;;;;5094718;28;20206;-62
2021/10/28 18:05:09;;;;;;;256.00;135.02;;;281.90;1715.20;;;;;;5094425;28;20040;-63
2021/10/28 18:07:35;;;;;;;246.50;131.32;;;281.80;1740.80;;;;;;5094745;28;20424;-65
2021/10/28 18:10:02;;;;;;;253.90;134.43;;;281.80;1715.20;;;;;;5094503;28;20028;-63
2021/10/28 18:12:29;;;;;;;257.90;141.30;;;281.80;1740.80;;;;;;5075674;28;20385;-64
2021/10/28 18:14:55;;;;;;;263.92;140.23;;;281.70;1715.20;;;;;;5076542;28;20028;-62
2021/10/28 18:17:22;;;;;;;274.92;141.70;;;281.70;1715.20;;;;;;5094632;28;20023;-62
2021/10/28 18:19:48;;;;;;;271.80;144.90;;;281.60;1740.80;;;;;;5094636;28;20055;-63
2021/10/28 18:22:15;;;;;;;307.92;160.10;;;281.60;1715.20;;;;;;5094501;28;20496;-63
2021/10/28 18:24:41;;;;;;;307.90;161.98;;;281.60;1740.80;;;;;;5076264;28;20032;-64
2021/10/28 18:27:08;;;;;;;296.23;156.82;;;256.90;1715.20;;;;;;5094080;28;20073;-62
2021/10/28 18:29:35;;;;;;;290.13;155.43;;;256.90;1689.60;;;;;;5094378;28;20030;-63
2021/10/28 18:32:01;;;;;;;306.38;161.40;;;256.90;1715.20;;;;;;5075762;28;20071;-62
2021/10/28 18:34:27;;;;;;;340.33;190.68;;;256.80;1689.60;;;;;;5094175;28;20119;-63
2021/10/28 18:36:53;;;;;;;331.88;182.40;;;256.80;1715.20;;;;;;5093538;28;20127;-65
2021/10/28 18:39:19;;;;;;;345.75;189.02;;;256.80;1689.60;;;;;;5094108;28;20024;-66
2021/10/28 18:41:50;;;;;;;349.48;190.35;;;256.80;1715.20;;;;;;5094248;28;20132;-63
2021/10/28 18:44:16;;;;;;;333.08;180.80;;;256.80;1740.80;;;;;;5075672;28;20089;-65
2021/10/28 18:46:43;;;;;;;326.60;170.57;;;256.70;1715.20;;;;;;5093853;28;20036;-62
2021/10/28 18:49:09;;;;;;;324.00;169.88;;;256.70;1740.80;;;;;;5093831;28;20065;-62
2021/10/28 18:51:38;;;;;;;305.00;161.60;;;256.60;1715.20;;;;;;5093961;28;20028;-65
2021/10/28 18:54:04;;;;;;;317.92;167.45;;;256.60;1715.20;;;;;;5094078;28;20016;-62
2021/10/28 18:56:31;;;;;;;328.40;165.90;;;256.60;1715.20;;;;;;5094070;28;20054;-63
2021/10/28 18:58:57;;;;;;;339.20;189.40;;;256.60;1689.60;;;;;;5094230;28;20020;-61
2021/10/28 19:01:25;;;;;;;363.58;207.35;;;256.60;1715.20;;;;;;5093784;28;20481;-62
2021/10/28 19:03:53;;;;;;;348.95;198.57;;;256.50;1689.60;;;;;;5093785;28;20021;-64
2021/10/28 19:06:19;;;;;;;302.58;167.65;;;256.50;1715.20;;;;;;5093130;28;20388;-63
2021/10/28 19:08:45;;;;;;;291.67;153.48;;;256.40;1740.80;;;;;;5089088;28;20103;-62
2021/10/28 19:11:14;;;;;;;302.63;159.80;;;256.40;1715.20;;;;;;5088109;28;20091;-62
2021/10/28 19:13:42;;;;;;;279.15;151.27;;;256.40;1740.80;;;;;;5072763;28;20028;-62
2021/10/28 19:16:13;;;;;;;284.70;148.90;;;256.40;1740.80;;;;;;5090743;28;20024;-65
2021/10/28 19:18:39;;;;;;;295.90;158.18;;;256.50;1740.80;;;;;;5091619;28;20021;-63
2021/10/28 19:21:05;;;;;;;291.35;155.95;;;256.40;1715.20;;;;;;5091780;28;20051;-62
2021/10/28 19:23:32;;;;;;;274.45;142.65;;;256.40;1715.20;;;;;;5088372;28;20040;-63
2021/10/28 19:25:58;;;;;;;255.00;133.15;;;256.40;1740.80;;;;;;5091507;28;20028;-62
2021/10/28 19:28:27;;;;;;;255.55;132.88;;;256.40;1740.80;;;;;;5090562;28;20034;-62
2021/10/28 19:30:58;;;;;;;257.48;138.23;;;256.40;1715.20;;;;;;5091027;28;20456;-63
2021/10/28 19:33:41;;;;;;;231.10;123.93;;;256.30;1715.20;;;;;;5088807;28;20020;-62
2021/10/28 19:36:14;;;;;;;239.75;127.32;;;256.30;1715.20;;;;;;5089384;28;20545;-62
2021/10/28 19:46:46;;;;;;;234.82;122.82;;;256.20;1689.60;;;;;;4989155;28;20093;-62
2021/10/28 19:49:14;;;;;;;190.07;104.90;;;256.20;1715.20;;;;;;4989164;28;20033;-62
2021/10/28 19:51:41;;;;;;;213.50;112.18;;;256.20;1740.80;;;;;;4989604;28;20436;-63
2021/10/28 19:54:11;;;;;;;200.48;107.95;;;256.20;1715.20;;;;;;4989138;28;20033;-62
2021/10/28 19:56:36;;;;;;;175.50;96.80;;;256.20;1689.60;;;;;;4988724;28;20552;-62
2021/10/28 19:59:02;;;;;;;153.50;85.15;;;256.10;1715.20;;;;;;4989120;28;20109;-62
2021/10/28 20:05:07;;;;;;;176.90;91.80;;;256.10;1715.20;;;;;;4971580;28;20272;-62
2021/10/28 20:07:16;;;;;;;166.48;87.88;;;256.10;1689.60;;;;;;4976615;28;20081;-65
2021/10/28 20:15:25;;;;;;;138.90;75.40;;;256.00;1740.80;;;;;;4991543;28;20034;-61
2021/10/28 20:20:37;;;;;;;133.73;69.97;;;231.30;1715.20;;;;;;5090324;28;20101;-60
2021/10/28 20:23:04;;;;;;;128.45;71.68;;;231.30;1715.20;;;;;;5094619;28;20256;-61
2021/10/28 20:25:30;;;;;;;147.60;76.13;;;231.30;1740.80;;;;;;5094942;28;20058;-61
2021/10/28 20:28:01;;;;;;;150.32;82.35;;;231.20;1715.20;;;;;;5095298;28;20020;-60
2021/10/28 20:30:30;;;;;;;146.57;79.82;;;231.30;1740.80;;;;;;5074164;28;20152;-60
2021/10/28 20:32:57;;;;;;;153.73;78.80;;;231.20;1740.80;;;;;;5095156;28;20032;-61
2021/10/28 20:37:50;;;;;;;150.82;74.68;;;231.20;1766.40;;;;;;5095131;28;20157;-61
2021/10/28 20:40:16;;;;;;;148.23;74.53;;;231.10;1740.80;;;;;;5096383;28;20035;-61
2021/10/28 20:42:47;;;;;;;135.43;73.80;;;231.10;1740.80;;;;;;5096094;28;20020;-62
2021/10/28 20:45:16;;;;;;;155.80;77.13;;;231.10;1740.80;;;;;;5096372;28;20393;-61
2021/10/28 20:47:43;;;;;;;141.95;70.35;;;231.10;1740.80;;;;;;5096297;28;20031;-61
2021/10/28 20:50:11;;;;;;;149.50;74.47;;;231.00;1766.40;;;;;;5096129;28;20133;-60
2021/10/28 20:52:41;;;;;;;136.93;70.15;;;231.00;1740.80;;;;;;5095945;28;20028;-60
2021/10/28 20:55:08;;;;;;;132.35;70.10;;;231.00;1766.40;;;;;;5096005;28;20041;-61
2021/10/28 20:57:35;;;;;;;138.73;68.45;;;231.00;1740.80;;;;;;5077114;28;20032;-62
2021/10/28 21:00:07;;;;;;;131.82;69.20;;;231.00;1766.40;;;;;;5077444;28;20039;-60
2021/10/28 21:02:37;;;;;;;128.68;66.53;;;231.00;1766.40;;;;;;5092215;28;20109;-61
2021/10/28 21:05:11;;;;;;;121.88;67.60;;;231.00;1740.80;;;;;;5094720;28;20060;-61
2021/10/28 21:07:38;;;;;;;133.98;67.22;;;231.00;1792.00;;;;;;5094786;28;20016;-61
2021/10/28 21:10:05;;;;;;;134.63;68.65;;;230.90;1766.40;;;;;;5094572;28;20032;-61
2021/10/28 21:12:32;;;;;;;127.60;69.55;;;230.90;1766.40;;;;;;5077717;28;20036;-61
2021/10/28 21:14:57;;;;;;;131.50;69.40;;;230.90;1740.80;;;;;;5094891;28;20082;-60